Time;durP1;ratioP1;P1;durP2;ratioP2;P2;SDS_P1;SDS_P2;PMS_P1;PMS_P2;Temp;Humidity;BMP_temperature;BMP_pressure;BME280_temperature;BME280_humidity;BME280_pressure;Samples;Min_cycle;Max_cycle;Signal;HPM_P1;HPM_P2
2021/12/17 00:02:11;;;;;;;3.58;1.15;;;;;;;-5.54;100.00;100866.53;5092024;28;20075;-74
2021/12/17 00:04:39;;;;;;;1.80;1.00;;;;;;;-5.36;100.00;100883.66;5089688;28;20063;-74
2021/12/17 00:07:08;;;;;;;2.00;1.10;;;;;;;-5.36;100.00;100874.34;5091320;28;20062;-73
2021/12/17 00:09:35;;;;;;;2.95;1.10;;;;;;;-5.36;100.00;100879.44;5090576;28;20474;-72
2021/12/17 00:12:03;;;;;;;2.92;0.93;;;;;;;-5.44;100.00;100878.50;5092101;28;20131;-73
2021/12/17 00:14:36;;;;;;;1.30;1.00;;;;;;;-5.46;100.00;100882.69;5092301;28;20131;-73
2021/12/17 00:17:10;;;;;;;1.15;0.90;;;;;;;-5.34;100.00;100879.47;5091123;22;20049;-66
2021/12/17 00:19:55;;;;;;;1.17;0.95;;;;;;;-5.43;100.00;100880.19;5071865;28;20049;-66
2021/12/17 00:50:03;;;;;;;1.67;1.02;;;;;;;-5.28;100.00;100899.81;5071272;28;20055;-66
2021/12/17 00:52:33;;;;;;;2.28;1.00;;;;;;;-5.31;100.00;100913.31;5071468;28;20098;-66
2021/12/17 00:55:00;;;;;;;3.28;1.20;;;;;;;-5.37;100.00;100917.44;5071603;28;20131;-67
2021/12/17 00:57:34;;;;;;;3.85;1.30;;;;;;;-5.30;100.00;100924.28;5071294;28;20512;-64
2021/12/17 01:00:01;;;;;;;1.40;1.30;;;;;;;-5.24;100.00;100937.06;5051623;28;20132;-63
2021/12/17 01:02:30;;;;;;;3.95;1.35;;;;;;;-5.30;100.00;100942.06;5055384;28;20159;-63
2021/12/17 01:05:01;;;;;;;2.15;1.27;;;;;;;-5.12;100.00;100949.88;5071039;28;20536;-63
2021/12/17 01:07:33;;;;;;;1.60;1.10;;;;;;;-4.93;100.00;100950.09;5074067;28;20080;-64
2021/12/17 01:10:02;;;;;;;2.97;1.02;;;;;;;-4.93;100.00;100955.19;5074842;28;20398;-64
2021/12/17 01:12:29;;;;;;;4.43;1.45;;;;;;;-4.83;100.00;100960.41;5074573;28;20102;-66
2021/12/17 01:14:57;;;;;;;1.08;1.00;;;;;;;-4.67;100.00;100951.25;5075036;28;20131;-62
2021/12/17 01:17:28;;;;;;;2.08;1.30;;;;;;;-4.28;100.00;100944.84;5093892;23;20147;-73
2021/12/17 01:22:54;;;;;;;2.95;1.15;;;;;;;-4.04;100.00;100961.97;5087643;28;20553;-74
2021/12/17 01:25:38;;;;;;;2.05;1.08;;;;;;;-4.01;100.00;100953.53;5094758;28;20054;-74
2021/12/17 01:36:17;;;;;;;1.15;1.00;;;;;;;-3.92;100.00;100986.66;5074328;28;20052;-73
2021/12/17 01:39:45;;;;;;;1.20;0.90;;;;;;;-3.75;100.00;100987.66;5074490;28;20052;-74
2021/12/17 01:44:29;;;;;;;1.08;0.88;;;;;;;-3.51;100.00;100991.19;5071309;28;20394;-73
2021/12/17 01:46:57;;;;;;;0.82;0.80;;;;;;;-3.37;100.00;100987.03;5074261;28;20502;-73
2021/12/17 01:55:40;;;;;;;;;;;;;;;-3.30;100.00;100993.84;5074534;28;20136;-73
2021/12/17 02:00:43;;;;;;;1.27;0.90;;;;;;;-3.04;100.00;100999.94;5074160;28;20402;-73
2021/12/17 02:03:11;;;;;;;1.67;0.82;;;;;;;-2.94;100.00;101004.22;5073846;28;20044;-73
2021/12/17 02:05:39;;;;;;;2.95;1.02;;;;;;;-2.87;100.00;101011.06;5073933;28;20460;-73
2021/12/17 02:08:08;;;;;;;0.80;0.80;;;;;;;-2.72;100.00;101012.81;5073859;28;20044;-73
2021/12/17 02:32:39;;;;;;;0.70;0.70;;;;;;;-2.47;99.56;101050.22;5036445;28;20045;-63
2021/12/17 02:35:31;;;;;;;2.55;1.10;;;;;;;-2.47;99.41;101047.69;5093670;28;20486;-63
2021/12/17 02:38:00;;;;;;;1.95;0.90;;;;;;;-2.32;98.85;101051.97;5093419;28;20117;-67
2021/12/17 02:45:56;;;;;;;0.70;0.70;;;;;;;-2.23;98.99;101061.38;5093796;28;20100;-64
2021/12/17 02:48:24;;;;;;;1.10;0.70;;;;;;;-2.22;99.38;101065.59;5093652;28;20048;-65
2021/12/17 02:50:57;;;;;;;0.70;0.70;;;;;;;-2.23;99.06;101074.13;5093123;28;20055;-63
2021/12/17 02:53:29;;;;;;;1.75;1.00;;;;;;;-2.11;98.72;101069.03;5093173;28;20090;-63
2021/12/17 02:55:58;;;;;;;2.20;0.80;;;;;;;-2.26;98.66;101076.63;5092804;28;20401;-64
2021/12/17 02:58:27;;;;;;;0.80;0.80;;;;;;;-2.19;98.51;101079.22;5092814;28;20070;-63
2021/12/17 03:00:55;;;;;;;0.98;0.70;;;;;;;-2.31;98.31;101080.88;5093184;28;20097;-63
2021/12/17 03:03:23;;;;;;;;;;;;;;;-2.40;97.99;101091.91;5093760;28;20162;-64
2021/12/17 03:05:51;;;;;;;1.85;0.95;;;;;;;-2.49;98.45;101094.41;5092791;28;19959;-62
2021/12/17 03:08:19;;;;;;;2.28;0.85;;;;;;;-2.53;98.50;101090.16;5093044;28;20079;-63
2021/12/17 03:10:50;;;;;;;1.58;0.80;;;;;;;-2.58;98.64;101099.47;5092781;28;20501;-64
2021/12/17 03:13:18;;;;;;;0.88;0.88;;;;;;;-2.80;98.71;101094.28;5092580;28;20080;-64
2021/12/17 03:15:50;;;;;;;1.77;1.05;;;;;;;-2.88;98.91;101114.63;5093385;28;20044;-64
2021/12/17 03:18:51;;;;;;;1.42;0.90;;;;;;;-2.96;99.68;101108.59;5072547;28;20045;-63
2021/12/17 03:24:02;;;;;;;4.47;0.80;;;;;;;-2.96;99.20;101115.38;5072524;28;20141;-64
2021/12/17 03:26:31;;;;;;;1.65;0.90;;;;;;;-3.04;99.28;101117.88;5072140;28;20051;-63
2021/12/17 03:29:02;;;;;;;2.75;1.27;;;;;;;-3.16;99.12;101136.50;5071978;28;20398;-64
2021/12/17 03:31:29;;;;;;;0.80;0.70;;;;;;;-3.26;99.59;101142.34;5072174;28;20060;-63
2021/12/17 03:34:05;;;;;;;0.82;0.80;;;;;;;-3.36;99.69;101141.41;5071927;28;20044;-65
2021/12/17 03:36:32;;;;;;;4.03;0.90;;;;;;;-3.18;99.75;101150.88;5072142;28;20044;-64
2021/12/17 03:38:59;;;;;;;3.30;1.00;;;;;;;-3.22;99.53;101158.47;5072275;28;20577;-65
2021/12/17 03:41:34;;;;;;;1.75;1.13;;;;;;;-3.21;99.94;101167.81;5072225;28;20131;-63
2021/12/17 03:44:04;;;;;;;1.15;0.90;;;;;;;-3.31;99.84;101177.94;5071998;28;20051;-65
2021/12/17 03:46:31;;;;;;;1.92;0.77;;;;;;;-3.23;99.82;101190.72;5071679;28;20047;-63
2021/12/17 03:48:57;;;;;;;1.73;0.90;;;;;;;-3.13;99.53;101197.59;5071876;28;20135;-62
2021/12/17 03:51:25;;;;;;;0.70;0.70;;;;;;;-3.21;99.58;101198.34;5071827;28;20154;-62
2021/12/17 03:53:54;;;;;;;1.10;0.80;;;;;;;-3.30;100.00;101196.59;5071930;28;20487;-62
2021/12/17 03:56:22;;;;;;;1.85;0.80;;;;;;;-3.22;100.00;101194.13;5072055;28;20044;-63
2021/12/17 03:58:52;;;;;;;5.28;1.02;;;;;;;-3.25;100.00;101205.13;5072049;28;20143;-64
2021/12/17 04:01:21;;;;;;;1.02;0.80;;;;;;;-3.35;100.00;101208.41;5072221;28;20133;-64
2021/12/17 04:03:48;;;;;;;2.00;0.90;;;;;;;-3.40;100.00;101210.06;5072345;28;20072;-63
2021/12/17 04:06:15;;;;;;;1.33;1.02;;;;;;;-3.49;100.00;101205.75;5072001;28;20095;-62
2021/12/17 04:08:42;;;;;;;1.30;0.90;;;;;;;-3.28;100.00;101213.59;5071962;28;20096;-62
2021/12/17 04:11:16;;;;;;;1.30;0.80;;;;;;;-3.44;100.00;101228.69;5072026;28;20140;-61
2021/12/17 04:13:51;;;;;;;1.17;1.00;;;;;;;-3.24;99.67;101229.72;5071875;28;20506;-62
2021/12/17 04:16:22;;;;;;;1.52;0.90;;;;;;;-3.43;99.96;101230.41;5076399;28;20052;-63
2021/12/17 04:18:51;;;;;;;1.02;0.90;;;;;;;-3.57;100.00;101238.75;5092141;28;20052;-63
2021/12/17 04:21:18;;;;;;;2.72;0.88;;;;;;;-3.72;100.00;101241.97;5092092;28;20496;-62
2021/12/17 04:23:45;;;;;;;;;;;;;;;-3.75;100.00;101253.78;5092489;28;20080;-63
2021/12/17 04:26:13;;;;;;;1.13;0.80;;;;;;;-3.82;100.00;101257.09;5091873;28;20051;-63
2021/12/17 04:28:44;;;;;;;1.20;0.90;;;;;;;-3.79;100.00;101257.13;5092217;28;20064;-64
2021/12/17 04:31:11;;;;;;;0.90;0.90;;;;;;;-3.72;100.00;101258.94;5091757;28;20055;-63
2021/12/17 04:33:39;;;;;;;2.05;1.08;;;;;;;-3.65;99.81;101265.75;5091937;28;20500;-63
2021/12/17 04:36:09;;;;;;;1.88;1.05;;;;;;;-3.86;99.75;101274.00;5092025;28;20176;-63
2021/12/17 04:38:37;;;;;;;1.00;0.95;;;;;;;-3.87;99.77;101277.38;5091936;28;20157;-63
2021/12/17 04:41:36;;;;;;;2.45;1.08;;;;;;;-3.91;99.58;101268.00;5094639;28;20044;-64
2021/12/17 04:44:06;;;;;;;1.85;1.42;;;;;;;-3.90;99.62;101279.03;5095302;28;20055;-68
2021/12/17 04:46:38;;;;;;;3.22;1.25;;;;;;;-4.05;99.66;101269.53;5095381;28;20493;-67
2021/12/17 04:57:28;;;;;;;1.60;0.77;;;;;;;-4.22;100.00;101305.72;5095494;28;20174;-64
2021/12/17 04:59:57;;;;;;;0.93;0.90;;;;;;;-4.13;99.35;101320.25;5095460;28;20047;-67
2021/12/17 05:02:25;;;;;;;2.90;1.00;;;;;;;-4.29;100.00;101334.44;5095183;28;20051;-67
2021/12/17 05:04:52;;;;;;;2.58;1.20;;;;;;;-4.29;99.77;101336.97;5095300;28;20048;-66
2021/12/17 05:07:23;;;;;;;1.67;1.05;;;;;;;-4.26;100.00;101331.09;5095239;28;20131;-65
2021/12/17 05:09:57;;;;;;;1.08;1.00;;;;;;;-4.33;100.00;101332.66;5095097;28;20080;-63
2021/12/17 05:20:45;;;;;;;0.60;0.60;;;;;;;-4.31;99.71;101340.31;5095062;28;20047;-65
2021/12/17 05:23:14;;;;;;;2.58;1.10;;;;;;;-4.33;99.81;101344.53;5095193;28;20155;-65
2021/12/17 05:25:41;;;;;;;2.08;1.10;;;;;;;-4.44;98.91;101365.53;5095238;28;20054;-66
2021/12/17 05:28:08;;;;;;;1.70;0.85;;;;;;;-4.29;99.02;101375.09;5094840;28;20139;-66
2021/12/17 05:30:36;;;;;;;2.35;1.10;;;;;;;-4.45;99.14;101366.34;5094596;28;20083;-64
2021/12/17 05:33:03;;;;;;;1.20;0.90;;;;;;;-4.36;99.07;101370.72;5094659;28;20080;-65
2021/12/17 05:35:30;;;;;;;2.30;1.00;;;;;;;-4.50;98.76;101373.03;5094603;28;20135;-65
2021/12/17 05:37:57;;;;;;;1.02;0.95;;;;;;;-4.58;99.39;101381.34;5094551;28;20072;-66
2021/12/17 05:40:26;;;;;;;1.63;0.95;;;;;;;-4.43;98.92;101395.16;5094763;28;20565;-63
2021/12/17 05:42:56;;;;;;;2.88;1.30;;;;;;;-4.45;99.01;101401.06;5094796;28;20071;-67
2021/12/17 05:45:34;;;;;;;1.10;1.00;;;;;;;-4.50;98.92;101402.66;5094463;28;20051;-65
2021/12/17 05:48:02;;;;;;;1.05;0.95;;;;;;;-4.68;99.20;101401.50;5094485;28;20044;-69
2021/12/17 05:50:29;;;;;;;1.92;1.00;;;;;;;-4.67;99.54;101413.38;5093969;28;20083;-63
2021/12/17 05:52:56;;;;;;;2.00;1.00;;;;;;;-4.73;99.98;101415.81;5094060;28;20044;-65
2021/12/17 05:55:24;;;;;;;0.82;0.70;;;;;;;-4.76;99.65;101430.97;5094337;28;20463;-66
2021/12/17 05:57:53;;;;;;;1.10;0.90;;;;;;;-4.89;99.78;101439.19;5094408;28;20097;-66
2021/12/17 06:00:21;;;;;;;1.63;1.00;;;;;;;-5.04;100.00;101444.81;5094416;28;20048;-63
2021/12/17 06:02:49;;;;;;;0.95;0.80;;;;;;;-5.08;100.00;101455.75;5093941;28;20447;-63
2021/12/17 06:05:16;;;;;;;0.90;0.90;;;;;;;-4.79;100.00;101458.00;5094141;28;20070;-67
2021/12/17 06:07:43;;;;;;;;;;;;;;;-4.85;100.00;101458.75;5094764;28;20521;-64
2021/12/17 06:10:10;;;;;;;0.80;0.80;;;;;;;-4.74;100.00;101454.72;5094105;28;19927;-63
2021/12/17 06:12:38;;;;;;;0.95;0.88;;;;;;;-4.71;100.00;101462.41;5093836;28;20143;-70
2021/12/17 06:15:09;;;;;;;1.63;0.90;;;;;;;-4.49;100.00;101465.34;5093601;28;20509;-66
2021/12/17 06:17:36;;;;;;;1.00;0.90;;;;;;;-4.53;100.00;101473.72;5093454;28;20063;-68
2021/12/17 06:20:05;;;;;;;2.10;1.00;;;;;;;-4.37;100.00;101483.31;5093420;28;20446;-66
2021/12/17 06:22:32;;;;;;;1.30;1.00;;;;;;;-4.30;100.00;101495.31;5093691;28;20131;-64
2021/12/17 06:24:59;;;;;;;1.00;0.90;;;;;;;-4.31;99.80;101493.63;5093656;28;20044;-64
2021/12/17 06:27:26;;;;;;;2.42;1.02;;;;;;;-4.32;100.00;101491.88;5094302;28;20054;-63
2021/12/17 06:29:54;;;;;;;;;;;;;;;-4.20;100.00;101497.19;5094456;28;20097;-64
2021/12/17 06:32:23;;;;;;;1.10;0.93;;;;;;;-4.16;100.00;101508.28;5093533;28;20433;-63
2021/12/17 06:34:50;;;;;;;2.40;1.25;;;;;;;-4.26;100.00;101499.63;5093566;28;20139;-63
2021/12/17 06:37:17;;;;;;;3.42;1.33;;;;;;;-4.30;100.00;101497.84;5093571;28;20143;-63
2021/12/17 06:39:45;;;;;;;2.10;1.33;;;;;;;-4.34;100.00;101502.84;5093623;28;20059;-65
2021/12/17 06:42:13;;;;;;;4.10;1.60;;;;;;;-4.15;100.00;101512.53;5093458;28;20126;-64
2021/12/17 06:44:41;;;;;;;1.27;1.17;;;;;;;-4.07;100.00;101521.13;5093606;28;20127;-64
2021/12/17 06:47:12;;;;;;;3.08;1.48;;;;;;;-4.06;100.00;101527.06;5093432;28;20127;-66
2021/12/17 06:49:52;;;;;;;1.60;1.33;;;;;;;-4.23;100.00;101530.19;5093358;28;20211;-64
2021/12/17 06:55:16;;;;;;;1.73;1.40;;;;;;;-4.35;100.00;101537.56;5093287;28;20509;-64
2021/12/17 07:00:58;;;;;;;3.38;1.52;;;;;;;-4.21;100.00;101550.56;5093211;28;20478;-63
2021/12/17 07:06:19;;;;;;;2.20;1.20;;;;;;;-4.02;100.00;101577.16;5093013;28;20102;-63
2021/12/17 07:11:52;;;;;;;2.53;1.48;;;;;;;-4.13;100.00;101571.03;5093165;28;20406;-64
2021/12/17 07:17:15;;;;;;;3.22;1.20;;;;;;;-3.94;100.00;101598.47;5093090;28;20067;-63
2021/12/17 07:22:43;;;;;;;2.60;1.40;;;;;;;-4.13;100.00;101614.22;5093220;28;20544;-63
2021/12/17 07:28:13;;;;;;;1.98;1.13;;;;;;;-4.22;100.00;101637.75;5092987;28;20508;-65
2021/12/17 07:33:42;;;;;;;1.75;1.35;;;;;;;-4.05;100.00;101643.19;5092486;28;20048;-63
2021/12/17 07:36:13;;;;;;;1.73;1.20;;;;;;;-4.05;100.00;101638.97;5092704;28;20449;-64
2021/12/17 07:38:47;;;;;;;1.48;1.10;;;;;;;-3.85;99.99;101648.63;5093257;28;20044;-63
2021/12/17 07:41:14;;;;;;;2.30;1.30;;;;;;;-4.09;100.00;101651.56;5093265;28;20083;-68
2021/12/17 07:43:51;;;;;;;;;;;;;;;-4.05;100.00;101653.34;5093458;28;20054;-65
2021/12/17 07:46:19;;;;;;;2.30;1.48;;;;;;;-3.91;100.00;101658.69;5092606;28;19950;-65
2021/12/17 07:48:46;;;;;;;1.38;1.25;;;;;;;-3.99;100.00;101668.72;5092567;28;20047;-64
2021/12/17 07:51:15;;;;;;;1.80;1.38;;;;;;;-4.06;100.00;101669.41;5092537;28;20567;-64
2021/12/17 07:53:44;;;;;;;2.13;1.40;;;;;;;-4.01;100.00;101689.03;5092511;28;20040;-65
2021/12/17 07:56:14;;;;;;;1.40;1.00;;;;;;;-4.01;100.00;101689.03;5092277;28;20054;-67
2021/12/17 07:58:41;;;;;;;2.58;1.25;;;;;;;-4.18;100.00;101695.47;5092283;28;20051;-68
2021/12/17 08:01:10;;;;;;;1.55;1.00;;;;;;;-3.94;100.00;101697.63;5092276;28;20047;-69
2021/12/17 08:03:38;;;;;;;1.13;1.00;;;;;;;-4.14;100.00;101711.63;5092191;28;20489;-70
2021/12/17 08:06:06;;;;;;;2.28;1.10;;;;;;;-4.14;100.00;101712.47;5092249;28;20079;-69
2021/12/17 08:08:33;;;;;;;4.32;1.10;;;;;;;-4.22;100.00;101714.00;5092342;28;20478;-70
2021/12/17 08:11:02;;;;;;;1.02;1.02;;;;;;;-4.15;100.00;101723.47;5092456;28;20078;-68
2021/12/17 08:13:31;;;;;;;1.85;1.10;;;;;;;-4.05;100.00;101733.00;5092392;28;20569;-69
2021/12/17 08:23:08;;;;;;;1.27;1.17;;;;;;;-4.24;100.00;101738.53;5075642;28;20049;-69
2021/12/17 08:24:53;;;;;;;1.38;1.20;;;;;;;-4.19;100.00;101724.22;5075954;28;20406;-67
2021/12/17 08:27:44;;;;;;;2.00;1.08;;;;;;;-4.19;100.00;101742.00;5075728;28;20056;-64
2021/12/17 08:30:25;;;;;;;1.83;1.40;;;;;;;-4.32;100.00;101747.66;5075861;28;20048;-64
2021/12/17 08:32:52;;;;;;;1.00;0.88;;;;;;;-4.30;100.00;101754.50;5075770;28;20453;-67
2021/12/17 08:35:19;;;;;;;1.23;1.13;;;;;;;-4.19;100.00;101760.69;5075893;28;20139;-64
2021/12/17 08:37:47;;;;;;;1.30;1.20;;;;;;;-4.16;100.00;101768.38;5075591;28;20040;-66
2021/12/17 08:40:14;;;;;;;1.30;1.20;;;;;;;-4.24;100.00;101794.44;5075691;28;20142;-67
2021/12/17 08:42:42;;;;;;;1.70;1.38;;;;;;;-4.14;100.00;101793.81;5075515;28;20492;-66
2021/12/17 08:45:10;;;;;;;5.18;1.35;;;;;;;-4.32;100.00;101793.41;5075496;28;20498;-65
2021/12/17 08:47:37;;;;;;;1.85;1.33;;;;;;;-4.26;100.00;101796.09;5075225;28;20048;-65
2021/12/17 08:50:08;;;;;;;2.15;1.35;;;;;;;-4.09;100.00;101786.28;5075375;28;20486;-64
2021/12/17 08:52:35;;;;;;;3.40;1.48;;;;;;;-4.12;100.00;101793.84;5075458;28;20048;-65
2021/12/17 08:55:04;;;;;;;3.70;2.00;;;;;;;-4.10;100.00;101797.28;5075306;28;20131;-63
2021/12/17 08:57:31;;;;;;;1.75;1.45;;;;;;;-4.23;100.00;101804.66;5075273;28;20051;-64
2021/12/17 09:00:04;;;;;;;1.77;0.93;;;;;;;-4.11;100.00;101803.19;5075392;28;20058;-67
2021/12/17 09:02:33;;;;;;;1.30;1.20;;;;;;;-4.22;100.00;101805.50;5075099;28;20044;-68
2021/12/17 09:05:00;;;;;;;1.30;1.20;;;;;;;-4.32;100.00;101808.66;5075124;28;20052;-66
2021/12/17 09:07:27;;;;;;;0.88;0.88;;;;;;;-4.12;100.00;101811.66;5075005;28;20051;-64
2021/12/17 09:09:54;;;;;;;1.35;1.10;;;;;;;-4.06;100.00;101815.19;5075122;28;20048;-66
2021/12/17 09:12:21;;;;;;;1.77;0.93;;;;;;;-3.99;100.00;101821.25;5074921;28;20045;-63
2021/12/17 09:14:48;;;;;;;1.52;1.15;;;;;;;-3.99;99.79;101833.97;5075198;28;20045;-66
2021/12/17 09:17:18;;;;;;;1.42;1.02;;;;;;;-4.01;100.00;101838.16;5085664;28;20076;-66
2021/12/17 09:19:45;;;;;;;1.20;1.00;;;;;;;-4.04;99.49;101836.41;5095073;28;20048;-70
2021/12/17 09:22:12;;;;;;;2.13;0.93;;;;;;;-4.29;100.00;101829.94;5094810;28;20086;-63
2021/12/17 09:24:39;;;;;;;1.13;1.10;;;;;;;-4.23;100.00;101832.59;5095095;28;20127;-63
2021/12/17 09:27:06;;;;;;;2.15;1.00;;;;;;;-4.12;99.93;101837.06;5094129;28;20512;-65
2021/12/17 09:29:33;;;;;;;1.00;0.88;;;;;;;-4.03;100.00;101847.44;5095006;28;20131;-65
2021/12/17 09:32:00;;;;;;;1.30;1.20;;;;;;;-4.11;100.00;101854.03;5094839;28;20147;-69
2021/12/17 09:34:29;;;;;;;1.45;1.30;;;;;;;-4.20;100.00;101862.31;5094745;28;20135;-69
2021/12/17 09:36:56;;;;;;;2.35;1.40;;;;;;;-3.98;99.59;101874.69;5094857;28;20080;-66
2021/12/17 09:39:23;;;;;;;1.92;1.73;;;;;;;-4.05;99.60;101889.78;5094826;28;20136;-64
2021/12/17 09:41:53;;;;;;;2.20;1.23;;;;;;;-4.02;99.83;101894.91;5094627;28;20054;-67
2021/12/17 09:44:20;;;;;;;2.28;1.40;;;;;;;-4.15;100.00;101901.41;5094686;28;20067;-69
2021/12/17 09:46:48;;;;;;;1.40;1.30;;;;;;;-4.19;100.00;101899.59;5094548;28;20063;-66
2021/12/17 09:49:17;;;;;;;2.08;1.40;;;;;;;-4.21;100.00;101913.97;5094640;28;20135;-69
2021/12/17 09:51:46;;;;;;;1.90;1.33;;;;;;;-4.12;100.00;101918.41;5094826;28;20135;-70
2021/12/17 09:54:14;;;;;;;2.25;1.67;;;;;;;-4.33;100.00;101924.69;5094182;28;20048;-67
2021/12/17 09:56:41;;;;;;;4.40;2.85;;;;;;;-4.19;100.00;101923.34;5094080;28;20576;-64
2021/12/17 09:59:08;;;;;;;;;;;;;;;-4.17;100.00;101931.84;5094895;28;20135;-64
2021/12/17 10:01:37;;;;;;;2.15;1.50;;;;;;;-4.11;100.00;101932.81;5094352;28;19927;-64
2021/12/17 10:04:19;;;;;;;2.88;1.70;;;;;;;-3.95;100.00;101922.22;5094152;28;20105;-65
2021/12/17 10:06:49;;;;;;;2.67;1.50;;;;;;;-4.14;100.00;101915.81;5094207;28;20146;-63
2021/12/17 10:09:16;;;;;;;1.75;1.50;;;;;;;-4.05;99.73;101905.03;5094056;28;20073;-63
2021/12/17 10:12:04;;;;;;;1.88;1.20;;;;;;;-3.78;98.11;101902.22;5094106;28;20127;-63
2021/12/17 10:14:31;;;;;;;1.17;1.08;;;;;;;-3.83;98.10;101894.50;5094146;28;20074;-63
2021/12/17 10:17:10;;;;;;;1.88;1.10;;;;;;;-3.82;98.19;101891.16;5094574;28;20098;-63
2021/12/17 10:19:48;;;;;;;1.90;1.27;;;;;;;-3.90;97.48;101887.56;5093858;28;20489;-63
2021/12/17 10:22:18;;;;;;;1.05;0.90;;;;;;;-3.83;97.89;101884.31;5093670;28;20050;-64
2021/12/17 10:24:46;;;;;;;1.95;1.20;;;;;;;-3.80;98.23;101893.69;5093846;28;20139;-63
2021/12/17 10:27:25;;;;;;;1.55;1.02;;;;;;;-3.88;97.69;101888.44;5093666;28;20131;-63
2021/12/17 10:29:52;;;;;;;0.90;0.90;;;;;;;-3.99;97.90;101895.84;5093831;28;20044;-63
2021/12/17 10:32:20;;;;;;;1.50;1.13;;;;;;;-3.99;97.82;101900.06;5093800;28;20050;-63
2021/12/17 10:35:05;;;;;;;0.90;0.90;;;;;;;-4.09;98.06;101926.94;5093562;28;20135;-63
2021/12/17 10:37:42;;;;;;;4.35;1.80;;;;;;;-4.14;96.85;101928.53;5092673;28;20055;-64
2021/12/17 10:40:22;;;;;;;0.80;0.80;;;;;;;-4.07;95.93;101943.09;5093338;28;20083;-63
2021/12/17 10:42:58;;;;;;;0.70;0.70;;;;;;;-4.28;95.25;101948.53;5093498;28;20040;-66
2021/12/17 10:45:27;;;;;;;0.80;0.80;;;;;;;-4.32;95.78;101948.41;5093223;28;20139;-63
2021/12/17 10:48:21;;;;;;;0.70;0.70;;;;;;;-4.31;96.23;101948.47;5093432;28;20349;-63
2021/12/17 10:50:48;;;;;;;0.60;0.60;;;;;;;-4.31;96.66;101948.47;5093214;28;20387;-63
2021/12/17 10:53:17;;;;;;;0.70;0.70;;;;;;;-4.29;95.95;101956.09;5093160;28;20111;-63
2021/12/17 10:55:47;;;;;;;0.70;0.70;;;;;;;-4.32;95.32;101953.50;5093167;28;20072;-64
2021/12/17 10:58:14;;;;;;;0.80;0.80;;;;;;;-4.36;95.60;101959.34;5093176;28;20059;-63
2021/12/17 11:00:49;;;;;;;;;;;;;;;-4.36;95.38;101952.56;5093796;28;20044;-63
2021/12/17 11:03:16;;;;;;;0.75;0.75;;;;;;;-4.55;96.50;101947.81;5092990;28;19920;-63
2021/12/17 11:05:43;;;;;;;1.10;1.00;;;;;;;-4.56;96.25;101949.50;5093158;28;20153;-65
2021/12/17 11:08:28;;;;;;;0.70;0.70;;;;;;;-4.39;95.61;101948.25;5092971;28;20134;-64
2021/12/17 11:10:58;;;;;;;0.80;0.80;;;;;;;-4.43;95.95;101949.00;5092850;28;20076;-62
2021/12/17 11:13:26;;;;;;;0.80;0.80;;;;;;;-4.46;95.71;101955.69;5092965;28;20126;-63
2021/12/17 11:15:54;;;;;;;0.80;0.80;;;;;;;-4.67;96.95;101964.47;5092832;28;20059;-62
2021/12/17 11:18:25;;;;;;;1.17;0.80;;;;;;;-4.75;97.36;101980.28;5103492;22;20050;-73
2021/12/17 11:20:55;;;;;;;0.75;0.70;;;;;;;-4.62;95.62;101967.13;5092768;28;20072;-72
2021/12/17 11:23:24;;;;;;;0.70;0.70;;;;;;;-4.70;93.69;101959.31;5092999;28;20414;-69
2021/12/17 11:25:54;;;;;;;0.75;0.75;;;;;;;-5.01;95.85;101964.34;5092874;28;20044;-70
2021/12/17 11:28:22;;;;;;;0.70;0.70;;;;;;;-5.01;95.95;101954.19;5092361;28;20044;-71
2021/12/17 11:30:51;;;;;;;0.88;0.88;;;;;;;-5.03;96.55;101949.94;5092492;28;20060;-72
2021/12/17 11:33:18;;;;;;;0.80;0.80;;;;;;;-5.00;95.80;101950.84;5092388;28;20414;-73
2021/12/17 11:35:46;;;;;;;;;;;;;;;-4.93;95.91;101953.59;5093020;28;20513;-73
2021/12/17 11:38:16;;;;;;;0.70;0.70;;;;;;;-4.98;95.53;101964.41;5092736;28;19920;-70
2021/12/17 11:40:49;;;;;;;0.80;0.80;;;;;;;-5.04;96.83;101973.59;5092750;28;20044;-73
2021/12/17 11:43:36;;;;;;;0.70;0.70;;;;;;;-4.93;95.98;101988.25;5092642;28;20127;-72
2021/12/17 11:46:04;;;;;;;;;;;;;;;-4.89;96.28;102011.25;5093026;28;20083;-71
2021/12/17 11:48:34;;;;;;;4.90;0.88;;;;;;;-4.90;95.69;102022.22;5092906;28;19966;-71
2021/12/17 11:51:08;;;;;;;0.90;0.90;;;;;;;-5.13;97.14;102030.84;5092914;28;20135;-73
2021/12/17 11:53:54;;;;;;;0.93;0.80;;;;;;;-5.01;97.05;102032.88;5092889;28;20044;-73
2021/12/17 11:56:34;;;;;;;0.90;0.90;;;;;;;-4.93;95.42;102026.34;5092576;28;20482;-74
2021/12/17 11:59:02;;;;;;;0.80;0.80;;;;;;;-5.32;95.95;102019.28;5092798;28;20141;-74
2021/12/17 12:02:02;;;;;;;0.80;0.80;;;;;;;-5.16;94.76;102025.66;5092265;28;20097;-74
2021/12/17 12:04:50;;;;;;;0.80;0.80;;;;;;;-5.28;95.23;102029.56;5029789;28;20085;-73
2021/12/17 12:07:18;;;;;;;0.70;0.70;;;;;;;-5.41;95.90;102052.00;5087607;28;20135;-73
2021/12/17 12:10:21;;;;;;;0.70;0.70;;;;;;;-5.27;95.25;102053.25;5092238;28;20048;-74
2021/12/17 12:13:00;;;;;;;0.90;0.90;;;;;;;-5.53;97.08;102063.44;5092089;28;20044;-71
2021/12/17 12:15:39;;;;;;;0.75;0.75;;;;;;;-5.49;96.64;102061.88;5092348;28;20393;-73
2021/12/17 12:18:18;;;;;;;0.80;0.80;;;;;;;-5.39;96.81;102084.19;5116221;23;20093;-65
2021/12/17 12:21:00;;;;;;;0.90;0.90;;;;;;;-5.48;97.20;102096.56;5112580;28;20100;-65
2021/12/17 12:23:46;;;;;;;0.82;0.82;;;;;;;-5.37;97.10;102110.47;5112343;28;20109;-66
2021/12/17 12:26:32;;;;;;;0.83;0.83;;;;;;;-5.11;96.09;102106.22;5112114;28;20060;-65
2021/12/17 12:29:05;;;;;;;0.70;0.70;;;;;;;-5.10;95.71;102082.56;5112371;28;20130;-63
2021/12/17 12:31:55;;;;;;;0.82;0.82;;;;;;;-5.35;96.19;102062.31;5112319;28;20052;-63
2021/12/17 12:34:29;;;;;;;0.80;0.80;;;;;;;-5.39;96.30;102053.75;5112491;28;20048;-65
2021/12/17 12:37:00;;;;;;;0.90;0.90;;;;;;;-5.55;97.12;102054.06;5112294;28;20130;-64
2021/12/17 12:39:29;;;;;;;0.90;0.90;;;;;;;-5.64;98.44;102049.56;5112319;28;20082;-63
2021/12/17 12:42:03;;;;;;;1.05;0.82;;;;;;;-5.42;98.02;102052.78;5112189;28;20044;-63
2021/12/17 12:45:10;;;;;;;1.00;0.90;;;;;;;-5.41;98.46;102067.22;5112113;28;20054;-64
2021/12/17 12:47:58;;;;;;;1.17;1.08;;;;;;;-5.27;97.50;102066.84;5112438;28;20047;-63
2021/12/17 12:50:27;;;;;;;1.13;1.00;;;;;;;-5.24;96.66;102086.38;5112025;28;20093;-63
2021/12/17 12:52:57;;;;;;;1.52;0.98;;;;;;;-5.41;96.82;102087.50;5112236;28;20130;-64
2021/12/17 12:55:27;;;;;;;0.80;0.80;;;;;;;-5.45;96.96;102089.06;5112026;28;20507;-63
2021/12/17 12:58:02;;;;;;;0.90;0.90;;;;;;;-5.45;97.27;102100.88;5112238;28;20130;-63
2021/12/17 13:00:34;;;;;;;0.90;0.90;;;;;;;-5.53;96.61;102093.03;5112369;28;20486;-62
2021/12/17 13:03:03;;;;;;;0.90;0.90;;;;;;;-5.37;96.37;102100.34;5115775;28;20134;-63
2021/12/17 13:05:34;;;;;;;0.90;0.90;;;;;;;-5.21;95.55;102106.75;5115904;28;20126;-62
2021/12/17 13:08:04;;;;;;;0.80;0.80;;;;;;;-5.28;94.69;102104.81;5115878;28;20108;-63
2021/12/17 13:10:33;;;;;;;0.90;0.90;;;;;;;-5.27;95.92;102116.69;5115589;28;20083;-63
2021/12/17 13:13:07;;;;;;;0.88;0.88;;;;;;;-5.35;95.29;102113.91;5115532;28;20135;-65
2021/12/17 13:15:44;;;;;;;0.90;0.90;;;;;;;-5.21;95.62;102121.09;5115755;28;20139;-65
2021/12/17 13:23:48;;;;;;;1.30;1.10;;;;;;;-5.65;97.30;102154.38;5111992;28;20140;-63
2021/12/17 13:26:16;;;;;;;0.90;0.90;;;;;;;-5.75;97.64;102153.19;5115296;28;20134;-63
2021/12/17 13:28:58;;;;;;;0.95;0.80;;;;;;;-5.81;97.83;102147.03;5115275;28;20088;-63
2021/12/17 13:31:39;;;;;;;1.08;1.00;;;;;;;-5.83;98.55;102133.44;5115397;28;20043;-62
2021/12/17 13:34:09;;;;;;;0.80;0.80;;;;;;;-5.67;97.88;102134.84;5115049;28;20075;-66
2021/12/17 13:36:37;;;;;;;0.88;0.82;;;;;;;-5.81;98.05;102130.13;5115079;28;20082;-63
2021/12/17 13:39:05;;;;;;;0.77;0.77;;;;;;;-5.84;98.39;102122.44;5115192;28;20138;-63
2021/12/17 13:41:38;;;;;;;2.33;1.70;;;;;;;-5.74;97.91;102116.88;5114969;28;20071;-62
2021/12/17 13:44:06;;;;;;;0.90;0.90;;;;;;;-5.70;97.75;102116.16;5114883;28;20507;-64
2021/12/17 13:46:37;;;;;;;0.88;0.88;;;;;;;-5.64;96.91;102109.59;5114637;28;20447;-66
2021/12/17 13:49:04;;;;;;;1.30;0.80;;;;;;;-5.45;96.18;102105.97;5115118;28;20076;-62
2021/12/17 13:51:32;;;;;;;0.80;0.80;;;;;;;-5.62;96.74;102098.69;5114816;28;20046;-68
2021/12/17 13:53:59;;;;;;;;;;;;;;;-5.87;97.92;102089.38;5114992;28;20087;-68
2021/12/17 13:56:26;;;;;;;0.80;0.80;;;;;;;-5.67;97.22;102099.34;5114640;28;19919;-64